createdAt,value
2018-05-15T03:01:11.414Z,0.00
2018-05-15T03:02:11.982Z,0.00
2018-05-15T03:03:12.553Z,0.00
2018-05-15T03:05:12.088Z,0.00
2018-05-15T03:06:17.260Z,0.00
2018-05-15T03:07:13.746Z,0.00
2018-05-15T03:08:13.059Z,0.00
2018-05-15T03:09:12.566Z,0.00
2018-05-15T03:10:10.609Z,0.00
2018-05-15T03:11:10.615Z,0.00
2018-05-15T03:12:11.015Z,0.00
2018-05-15T03:13:11.023Z,0.00
2018-05-15T03:14:11.064Z,0.00
2018-05-15T03:15:11.359Z,0.00
2018-05-15T03:16:11.320Z,0.00
2018-05-15T03:17:11.605Z,0.00
2018-05-15T03:18:11.758Z,0.00
2018-05-15T03:19:11.948Z,0.00
2018-05-15T03:20:12.077Z,0.00
2018-05-15T03:21:12.761Z,0.00
2018-05-15T03:22:12.800Z,0.00
2018-05-15T03:23:12.728Z,0.00
2018-05-15T03:24:12.929Z,5.63
2018-05-15T03:25:13.079Z,5.63
2018-05-15T03:26:13.436Z,5.63
2018-05-15T03:27:13.656Z,5.63
2018-05-15T03:28:13.824Z,5.63
2018-05-15T03:29:13.864Z,5.63
2018-05-15T03:30:14.089Z,5.63
2018-05-15T03:31:14.471Z,5.63
2018-05-15T03:32:15.213Z,5.63
2018-05-15T03:33:14.636Z,11.25
2018-05-15T03:34:14.763Z,11.25
2018-05-15T03:35:14.949Z,11.25
2018-05-15T03:36:15.129Z,11.25
2018-05-15T03:37:15.294Z,11.25
2018-05-15T03:38:15.503Z,11.25
2018-05-15T03:39:15.566Z,16.88
2018-05-15T03:40:15.770Z,16.88
2018-05-15T03:41:15.892Z,16.88
2018-05-15T03:42:16.151Z,16.88
2018-05-15T03:43:16.421Z,16.88
2018-05-15T03:44:16.360Z,16.88
2018-05-15T03:45:16.569Z,22.50
2018-05-15T03:46:16.722Z,22.50
2018-05-15T03:47:16.869Z,22.50
2018-05-15T03:48:17.057Z,22.50
2018-05-15T03:49:17.325Z,22.50
2018-05-15T03:50:17.540Z,28.13
2018-05-15T03:51:17.495Z,28.13
2018-05-15T03:52:17.939Z,28.13
2018-05-15T03:53:17.878Z,28.13
2018-05-15T03:54:18.155Z,28.13
2018-05-15T03:55:18.288Z,33.75
2018-05-15T03:56:18.409Z,33.75
2018-05-15T03:57:18.651Z,33.75
2018-05-15T03:58:18.744Z,39.38
2018-05-15T03:59:18.892Z,39.38
2018-05-15T04:00:19.014Z,45.00
2018-05-15T04:01:19.396Z,45.00
2018-05-15T04:02:19.401Z,45.00
2018-05-15T04:03:19.742Z,50.63
2018-05-15T04:04:19.865Z,50.63
2018-05-15T04:05:20.196Z,50.63
2018-05-15T04:06:20.388Z,56.25
2018-05-15T04:07:20.510Z,56.25
2018-05-15T04:08:20.647Z,61.88
2018-05-15T04:09:20.930Z,61.88
2018-05-15T04:10:21.375Z,67.50
2018-05-15T04:11:21.005Z,67.50
2018-05-15T04:12:21.648Z,73.13
2018-05-15T04:13:21.310Z,73.13
2018-05-15T04:14:21.781Z,78.75
2018-05-15T04:15:21.581Z,78.75
2018-05-15T04:16:21.931Z,78.75
2018-05-15T04:17:22.236Z,78.75
2018-05-15T04:18:22.298Z,84.38
2018-05-15T04:19:22.539Z,84.38
2018-05-15T04:20:22.487Z,90.00
2018-05-15T04:21:22.914Z,95.63
2018-05-15T04:22:23.116Z,95.63
2018-05-15T04:23:23.272Z,95.63
2018-05-15T04:24:23.438Z,95.63
2018-05-15T04:25:23.673Z,101.25
2018-05-15T04:26:24.000Z,101.25
2018-05-15T04:27:23.809Z,101.25
2018-05-15T04:28:24.137Z,101.25
2018-05-15T04:29:24.267Z,106.88
2018-05-15T04:30:24.439Z,106.88
2018-05-15T04:31:24.554Z,106.88
2018-05-15T04:32:24.839Z,106.88
2018-05-15T04:33:25.003Z,106.88
2018-05-15T04:34:25.213Z,106.88
2018-05-15T04:35:25.836Z,106.88
2018-05-15T04:36:25.642Z,106.88
2018-05-15T04:37:25.727Z,106.88
2018-05-15T04:38:39.254Z,101.25
2018-05-15T04:39:28.942Z,106.88
2018-05-15T04:40:28.818Z,106.88
2018-05-15T04:41:29.085Z,112.50
2018-05-15T04:42:29.890Z,112.50
2018-05-15T04:43:29.054Z,118.13
2018-05-15T04:44:30.112Z,123.75
2018-05-15T04:45:32.033Z,129.38
2018-05-15T04:46:30.089Z,140.63
2018-05-15T04:47:30.468Z,146.25
2018-05-15T04:48:30.935Z,157.50
2018-05-15T04:49:28.073Z,163.13
2018-05-15T04:50:27.969Z,168.75
2018-05-15T04:51:28.106Z,174.38
2018-05-15T04:52:28.359Z,174.38
2018-05-15T04:53:29.075Z,180.00
2018-05-15T04:54:28.589Z,180.00
2018-05-15T04:55:28.972Z,180.00
2018-05-15T04:56:30.224Z,180.00
2018-05-15T04:57:29.384Z,174.38
2018-05-15T04:58:29.518Z,174.38
2018-05-15T04:59:29.812Z,174.38
2018-05-15T05:00:29.730Z,180.00
2018-05-15T05:01:30.613Z,180.00
2018-05-15T05:02:30.660Z,180.00
2018-05-15T05:03:33.193Z,185.63
2018-05-15T05:04:30.648Z,191.25
2018-05-15T05:05:30.905Z,196.88
2018-05-15T05:08:16.360Z,202.50
2018-05-15T05:09:16.864Z,202.50
2018-05-15T05:10:19.815Z,208.13
2018-05-15T05:11:18.665Z,213.75
2018-05-15T05:12:18.726Z,219.38
2018-05-15T05:13:16.407Z,225.00
2018-05-15T05:15:18.746Z,236.25
2018-05-15T05:16:29.656Z,236.25
2018-05-15T05:17:18.954Z,241.88
2018-05-15T05:18:17.960Z,247.50
2018-05-15T05:19:17.965Z,258.75
2018-05-15T05:21:18.865Z,275.63
2018-05-15T05:22:22.735Z,286.88
2018-05-15T05:23:19.105Z,292.50
2018-05-15T05:24:19.920Z,298.13
2018-05-15T05:25:19.567Z,309.38
2018-05-15T05:38:39.180Z,371.25
2018-05-15T05:39:24.355Z,376.88
2018-05-15T05:40:22.591Z,376.88
2018-05-15T05:41:31.671Z,376.88
2018-05-15T05:43:25.307Z,376.88
2018-05-15T05:44:26.777Z,371.25
2018-05-15T06:30:26.139Z,416.25
2018-05-15T06:31:25.792Z,416.25
2018-05-15T06:32:29.391Z,416.25
2018-05-15T06:33:26.761Z,416.25
2018-05-15T06:34:27.378Z,433.13
2018-05-15T06:37:28.100Z,455.63
2018-05-15T06:41:27.245Z,483.75
2018-05-15T06:42:26.496Z,489.38
2018-05-15T06:46:53.844Z,568.13
2018-05-15T06:47:55.383Z,601.88
2018-05-15T06:48:56.472Z,646.88
2018-05-15T06:49:55.941Z,646.88
2018-05-15T06:50:56.583Z,675.00
2018-05-15T06:52:00.342Z,686.25
2018-05-15T06:52:59.776Z,691.88
2018-05-15T06:53:55.977Z,697.50
2018-05-15T06:55:00.386Z,680.63
2018-05-15T06:55:56.105Z,680.63
2018-05-15T06:56:57.397Z,652.50
2018-05-15T06:59:57.585Z,646.88
2018-05-15T07:00:00.495Z,618.75
2018-05-15T07:01:00.622Z,601.88
2018-05-15T07:02:00.929Z,573.75
2018-05-15T07:03:01.204Z,545.63
2018-05-15T07:04:01.790Z,534.38
2018-05-15T07:05:01.491Z,517.50
2018-05-15T07:06:01.942Z,500.63
2018-05-15T07:07:02.008Z,489.38
2018-05-15T07:08:02.025Z,472.50
2018-05-15T07:09:02.149Z,461.25
2018-05-15T07:10:02.343Z,466.88
2018-05-15T07:11:03.453Z,444.38
2018-05-15T07:12:02.954Z,444.38
2018-05-15T07:13:03.067Z,444.38
2018-05-15T07:14:03.119Z,444.38
2018-05-15T07:15:03.259Z,444.38
2018-05-15T07:16:03.741Z,444.38
2018-05-15T07:17:03.807Z,444.38
2018-05-15T07:18:04.260Z,416.25
2018-05-15T07:19:04.317Z,427.50
2018-05-15T07:20:04.374Z,438.75
2018-05-15T07:21:04.740Z,444.38
2018-05-15T07:22:04.832Z,450.00
2018-05-15T07:23:05.234Z,461.25
2018-05-15T07:24:05.315Z,455.63
2018-05-15T07:25:10.718Z,472.50
2018-05-15T07:27:42.423Z,466.88
2018-05-15T09:02:45.676Z,826.88
2018-05-15T09:24:59.838Z,871.88
2018-05-15T09:26:50.991Z,871.88
2018-05-15T10:43:51.226Z,1710.00
2018-05-15T10:44:56.632Z,821.25
2018-05-15T10:45:57.348Z,742.50
2018-05-15T10:47:56.400Z,787.50
2018-05-15T10:48:55.617Z,916.88
2018-05-15T10:49:55.532Z,1085.63
2018-05-15T10:50:59.858Z,1057.50
2018-05-15T10:51:56.499Z,1321.88
2018-05-15T10:53:54.457Z,922.50
2018-05-15T10:54:53.942Z,810.00
2018-05-15T10:55:53.737Z,725.63
2018-05-15T10:56:54.062Z,680.63
2018-05-15T10:57:55.869Z,635.63
2018-05-15T10:58:54.568Z,601.88
2018-05-15T10:59:54.489Z,573.75
2018-05-15T11:04:10.469Z,573.75
2018-05-15T11:05:06.864Z,573.75
2018-05-15T11:07:08.849Z,528.75
2018-05-15T11:09:12.298Z,433.13
2018-05-15T11:10:08.410Z,388.13
2018-05-15T11:11:10.179Z,337.50
2018-05-15T11:12:08.134Z,309.38
2018-05-15T11:13:05.984Z,275.63
2018-05-15T11:14:05.818Z,264.38
2018-05-15T11:15:06.606Z,258.75
2018-05-15T11:16:05.971Z,247.50
2018-05-15T11:17:10.081Z,241.88
2018-05-15T11:18:13.368Z,241.88
2018-05-15T11:19:06.521Z,241.88
2018-05-15T11:20:06.740Z,247.50
2018-05-15T11:21:07.791Z,247.50
2018-05-15T11:22:18.672Z,258.75
2018-05-15T11:23:11.872Z,270.00
2018-05-15T11:24:10.772Z,292.50
2018-05-15T11:25:10.159Z,348.75
2018-05-15T11:26:08.189Z,433.13
2018-05-15T11:27:07.982Z,472.50
2018-05-15T11:28:08.147Z,511.88
2018-05-15T11:29:08.366Z,545.63
2018-05-15T11:30:08.474Z,568.13
2018-05-15T11:31:09.034Z,568.13
2018-05-15T11:32:25.672Z,551.25
2018-05-15T11:33:09.500Z,517.50
2018-05-15T11:34:10.222Z,483.75
2018-05-15T11:35:09.722Z,461.25
2018-05-15T11:36:09.882Z,450.00
2018-05-15T11:38:59.829Z,433.13
2018-05-15T11:41:33.236Z,427.50
2018-05-15T11:42:33.600Z,405.00
2018-05-15T11:43:33.899Z,399.38
2018-05-15T11:57:08.292Z,1805.63
2018-05-15T11:58:07.674Z,1440.00
2018-05-15T12:04:44.719Z,883.13
2018-05-15T12:07:28.632Z,900.00
2018-05-15T12:08:26.047Z,883.13
2018-05-15T12:10:37.024Z,888.75
2018-05-15T12:11:26.344Z,871.88
2018-05-15T12:29:47.242Z,928.13
2018-05-15T16:34:20.208Z,157.50
2018-05-15T16:40:53.624Z,298.13
2018-05-15T16:42:44.840Z,371.25
2018-05-15T16:43:46.934Z,393.75
2018-05-15T16:54:21.682Z,393.75
2018-05-15T16:58:49.667Z,320.63
2018-05-15T17:05:51.121Z,230.63
2018-05-15T17:06:52.234Z,225.00
2018-05-15T17:07:53.744Z,230.63
2018-05-15T17:09:56.282Z,236.25
2018-05-15T17:10:56.415Z,236.25
2018-05-15T17:18:47.685Z,275.63
2018-05-15T17:19:49.523Z,281.25
2018-05-15T17:20:50.281Z,264.38
2018-05-15T17:21:47.208Z,236.25
2018-05-15T17:22:47.363Z,236.25
2018-05-15T17:23:47.450Z,236.25
2018-05-15T17:24:47.651Z,236.25
2018-05-15T17:25:47.893Z,230.63
2018-05-15T17:26:48.100Z,225.00
2018-05-15T17:27:48.159Z,219.38
2018-05-15T17:28:48.410Z,213.75
2018-05-15T17:29:48.587Z,208.13
2018-05-15T17:30:48.652Z,202.50
2018-05-15T17:31:48.905Z,191.25
2018-05-15T17:32:49.043Z,185.63
2018-05-15T17:33:49.221Z,185.63
2018-05-15T17:34:49.348Z,185.63
2018-05-15T17:35:51.706Z,185.63
2018-05-15T17:43:30.086Z,185.63
2018-05-15T17:44:33.091Z,191.25
2018-05-15T18:18:09.240Z,129.38
2018-05-15T18:20:28.485Z,123.75
2018-05-15T21:46:39.371Z,0.00
